sensor_id;sensor_type;location;lat;lon;timestamp;P1;durP1;ratioP1;P2;durP2;ratioP2
59728;SDS011;45588;51.598;5.618;2024-03-23T00:55:42;30.75;;;13.85;;
59728;SDS011;45588;51.598;5.618;2024-03-23T00:58:08;43.60;;;14.98;;
59728;SDS011;45588;51.598;5.618;2024-03-23T01:00:33;37.60;;;14.68;;
59728;SDS011;45588;51.598;5.618;2024-03-23T01:02:58;42.10;;;15.23;;
59728;SDS011;45588;51.598;5.618;2024-03-23T01:05:23;47.10;;;17.03;;
59728;SDS011;45588;51.598;5.618;2024-03-23T01:07:49;37.03;;;16.30;;
59728;SDS011;45588;51.598;5.618;2024-03-23T01:10:14;41.70;;;16.27;;
59728;SDS011;45588;51.598;5.618;2024-03-23T01:12:39;43.72;;;15.55;;
59728;SDS011;45588;51.598;5.618;2024-03-23T01:15:05;34.53;;;13.43;;
59728;SDS011;45588;51.598;5.618;2024-03-23T01:17:30;37.85;;;13.70;;
59728;SDS011;45588;51.598;5.618;2024-03-23T01:19:55;25.83;;;11.60;;
59728;SDS011;45588;51.598;5.618;2024-03-23T01:22:20;29.93;;;10.17;;
59728;SDS011;45588;51.598;5.618;2024-03-23T01:24:45;27.83;;;9.30;;
59728;SDS011;45588;51.598;5.618;2024-03-23T01:27:10;20.90;;;7.03;;
59728;SDS011;45588;51.598;5.618;2024-03-23T01:29:36;19.77;;;7.65;;
59728;SDS011;45588;51.598;5.618;2024-03-23T01:32:01;20.90;;;7.33;;
59728;SDS011;45588;51.598;5.618;2024-03-23T01:34:26;13.15;;;5.28;;
59728;SDS011;45588;51.598;5.618;2024-03-23T01:36:52;19.40;;;5.10;;
59728;SDS011;45588;51.598;5.618;2024-03-23T01:39:18;21.83;;;5.93;;
59728;SDS011;45588;51.598;5.618;2024-03-23T01:41:43;12.50;;;4.93;;
59728;SDS011;45588;51.598;5.618;2024-03-23T01:44:08;16.70;;;5.53;;
59728;SDS011;45588;51.598;5.618;2024-03-23T01:46:34;18.48;;;5.32;;
59728;SDS011;45588;51.598;5.618;2024-03-23T01:49:00;23.55;;;5.35;;
59728;SDS011;45588;51.598;5.618;2024-03-23T01:51:25;17.42;;;5.20;;
59728;SDS011;45588;51.598;5.618;2024-03-23T01:53:51;11.85;;;4.50;;
59728;SDS011;45588;51.598;5.618;2024-03-23T01:56:17;14.73;;;4.50;;
59728;SDS011;45588;51.598;5.618;2024-03-23T01:58:43;10.63;;;3.73;;
59728;SDS011;45588;51.598;5.618;2024-03-23T02:01:08;26.77;;;5.73;;
59728;SDS011;45588;51.598;5.618;2024-03-23T02:03:33;14.50;;;4.63;;
59728;SDS011;45588;51.598;5.618;2024-03-23T02:05:58;15.35;;;5.75;;
59728;SDS011;45588;51.598;5.618;2024-03-23T02:08:23;21.33;;;4.78;;
59728;SDS011;45588;51.598;5.618;2024-03-23T02:10:49;12.77;;;4.83;;
59728;SDS011;45588;51.598;5.618;2024-03-23T02:13:14;25.13;;;6.93;;
59728;SDS011;45588;51.598;5.618;2024-03-23T02:15:40;16.15;;;5.72;;
59728;SDS011;45588;51.598;5.618;2024-03-23T02:18:06;20.63;;;4.47;;
59728;SDS011;45588;51.598;5.618;2024-03-23T02:20:32;16.40;;;5.30;;
59728;SDS011;45588;51.598;5.618;2024-03-23T02:22:57;15.63;;;5.50;;
59728;SDS011;45588;51.598;5.618;2024-03-23T02:25:22;17.15;;;6.22;;
59728;SDS011;45588;51.598;5.618;2024-03-23T02:27:47;15.13;;;6.10;;
59728;SDS011;45588;51.598;5.618;2024-03-23T02:30:12;15.23;;;5.70;;
59728;SDS011;45588;51.598;5.618;2024-03-23T02:32:38;23.40;;;7.22;;
59728;SDS011;45588;51.598;5.618;2024-03-23T02:35:03;15.27;;;5.57;;
59728;SDS011;45588;51.598;5.618;2024-03-23T02:37:29;16.77;;;5.95;;
59728;SDS011;45588;51.598;5.618;2024-03-23T02:39:55;17.90;;;5.93;;
59728;SDS011;45588;51.598;5.618;2024-03-23T02:42:20;27.90;;;7.97;;
59728;SDS011;45588;51.598;5.618;2024-03-23T02:44:45;22.33;;;6.53;;
59728;SDS011;45588;51.598;5.618;2024-03-23T02:47:10;17.70;;;7.85;;
59728;SDS011;45588;51.598;5.618;2024-03-23T02:49:36;23.08;;;7.38;;
59728;SDS011;45588;51.598;5.618;2024-03-23T02:52:01;17.33;;;6.10;;
59728;SDS011;45588;51.598;5.618;2024-03-23T02:54:26;22.15;;;7.72;;
59728;SDS011;45588;51.598;5.618;2024-03-23T02:56:51;23.05;;;9.43;;
59728;SDS011;45588;51.598;5.618;2024-03-23T02:59:17;14.90;;;6.57;;
59728;SDS011;45588;51.598;5.618;2024-03-23T03:01:42;20.67;;;6.88;;
59728;SDS011;45588;51.598;5.618;2024-03-23T03:04:07;34.90;;;15.50;;
59728;SDS011;45588;51.598;5.618;2024-03-23T03:06:32;27.65;;;7.03;;
59728;SDS011;45588;51.598;5.618;2024-03-23T03:08:58;22.88;;;6.47;;
59728;SDS011;45588;51.598;5.618;2024-03-23T03:11:23;16.98;;;5.90;;
59728;SDS011;45588;51.598;5.618;2024-03-23T03:13:48;22.67;;;6.30;;
59728;SDS011;45588;51.598;5.618;2024-03-23T03:16:13;25.45;;;6.15;;
59728;SDS011;45588;51.598;5.618;2024-03-23T03:18:39;19.95;;;6.05;;
59728;SDS011;45588;51.598;5.618;2024-03-23T03:21:05;16.90;;;7.38;;
59728;SDS011;45588;51.598;5.618;2024-03-23T03:23:33;30.25;;;7.20;;
59728;SDS011;45588;51.598;5.618;2024-03-23T03:25:58;20.40;;;6.47;;
59728;SDS011;45588;51.598;5.618;2024-03-23T03:28:24;18.63;;;5.73;;
59728;SDS011;45588;51.598;5.618;2024-03-23T03:30:51;22.55;;;5.80;;
59728;SDS011;45588;51.598;5.618;2024-03-23T03:33:16;24.40;;;6.32;;
59728;SDS011;45588;51.598;5.618;2024-03-23T03:35:41;24.58;;;7.80;;
59728;SDS011;45588;51.598;5.618;2024-03-23T03:38:06;32.00;;;13.68;;
59728;SDS011;45588;51.598;5.618;2024-03-23T03:40:32;26.00;;;6.43;;
59728;SDS011;45588;51.598;5.618;2024-03-23T03:42:57;20.70;;;6.57;;
59728;SDS011;45588;51.598;5.618;2024-03-23T03:45:22;16.33;;;6.00;;
59728;SDS011;45588;51.598;5.618;2024-03-23T03:47:47;20.80;;;7.23;;
59728;SDS011;45588;51.598;5.618;2024-03-23T03:50:12;24.67;;;8.30;;
59728;SDS011;45588;51.598;5.618;2024-03-23T03:52:37;24.02;;;6.22;;
59728;SDS011;45588;51.598;5.618;2024-03-23T03:55:03;20.67;;;7.37;;
59728;SDS011;45588;51.598;5.618;2024-03-23T03:57:28;22.15;;;6.60;;
59728;SDS011;45588;51.598;5.618;2024-03-23T03:59:53;23.95;;;6.90;;
59728;SDS011;45588;51.598;5.618;2024-03-23T04:02:19;19.25;;;6.63;;
59728;SDS011;45588;51.598;5.618;2024-03-23T04:04:44;22.90;;;5.55;;
59728;SDS011;45588;51.598;5.618;2024-03-23T04:07:09;17.73;;;6.13;;
59728;SDS011;45588;51.598;5.618;2024-03-23T04:09:34;19.40;;;5.17;;
59728;SDS011;45588;51.598;5.618;2024-03-23T04:12:00;16.38;;;6.20;;
59728;SDS011;45588;51.598;5.618;2024-03-23T04:14:25;19.17;;;5.90;;
59728;SDS011;45588;51.598;5.618;2024-03-23T04:16:50;19.50;;;5.60;;
59728;SDS011;45588;51.598;5.618;2024-03-23T04:19:16;25.73;;;7.00;;
59728;SDS011;45588;51.598;5.618;2024-03-23T04:21:41;27.90;;;6.97;;
59728;SDS011;45588;51.598;5.618;2024-03-23T04:24:06;14.27;;;5.00;;
59728;SDS011;45588;51.598;5.618;2024-03-23T04:26:40;17.05;;;5.53;;
59728;SDS011;45588;51.598;5.618;2024-03-23T04:29:05;16.95;;;5.38;;
59728;SDS011;45588;51.598;5.618;2024-03-23T04:31:30;29.23;;;11.07;;
59728;SDS011;45588;51.598;5.618;2024-03-23T04:33:57;22.42;;;6.22;;
59728;SDS011;45588;51.598;5.618;2024-03-23T04:36:22;23.03;;;4.70;;
59728;SDS011;45588;51.598;5.618;2024-03-23T04:38:47;11.95;;;4.90;;
59728;SDS011;45588;51.598;5.618;2024-03-23T04:41:15;18.48;;;4.70;;
59728;SDS011;45588;51.598;5.618;2024-03-23T04:43:40;20.85;;;5.57;;
59728;SDS011;45588;51.598;5.618;2024-03-23T04:46:05;22.83;;;7.25;;
59728;SDS011;45588;51.598;5.618;2024-03-23T04:48:30;13.98;;;4.63;;
59728;SDS011;45588;51.598;5.618;2024-03-23T04:50:57;24.17;;;7.47;;
59728;SDS011;45588;51.598;5.618;2024-03-23T04:53:23;12.63;;;4.93;;
59728;SDS011;45588;51.598;5.618;2024-03-23T04:55:52;18.30;;;5.78;;
59728;SDS011;45588;51.598;5.618;2024-03-23T04:58:18;13.02;;;5.00;;
59728;SDS011;45588;51.598;5.618;2024-03-23T05:00:43;13.80;;;4.60;;
59728;SDS011;45588;51.598;5.618;2024-03-23T05:03:08;16.83;;;5.23;;
59728;SDS011;45588;51.598;5.618;2024-03-23T05:05:33;23.97;;;6.70;;
59728;SDS011;45588;51.598;5.618;2024-03-23T05:07:59;18.15;;;5.35;;
59728;SDS011;45588;51.598;5.618;2024-03-23T05:10:24;18.63;;;4.90;;
59728;SDS011;45588;51.598;5.618;2024-03-23T05:12:50;16.77;;;5.22;;
59728;SDS011;45588;51.598;5.618;2024-03-23T05:15:15;17.60;;;6.53;;
59728;SDS011;45588;51.598;5.618;2024-03-23T05:17:40;19.30;;;6.13;;
59728;SDS011;45588;51.598;5.618;2024-03-23T05:20:05;17.20;;;6.53;;
59728;SDS011;45588;51.598;5.618;2024-03-23T05:22:34;20.95;;;5.68;;
59728;SDS011;45588;51.598;5.618;2024-03-23T05:25:00;22.50;;;6.10;;
59728;SDS011;45588;51.598;5.618;2024-03-23T05:27:25;18.48;;;5.50;;
59728;SDS011;45588;51.598;5.618;2024-03-23T05:29:50;22.73;;;6.35;;
59728;SDS011;45588;51.598;5.618;2024-03-23T05:32:15;17.20;;;6.22;;
59728;SDS011;45588;51.598;5.618;2024-03-23T05:34:40;27.02;;;6.55;;
59728;SDS011;45588;51.598;5.618;2024-03-23T05:37:05;19.40;;;7.57;;
59728;SDS011;45588;51.598;5.618;2024-03-23T05:39:31;19.90;;;7.25;;
59728;SDS011;45588;51.598;5.618;2024-03-23T05:41:56;20.02;;;7.47;;
59728;SDS011;45588;51.598;5.618;2024-03-23T05:44:21;24.00;;;7.00;;
59728;SDS011;45588;51.598;5.618;2024-03-23T05:46:46;20.98;;;7.70;;
59728;SDS011;45588;51.598;5.618;2024-03-23T05:49:13;39.90;;;8.98;;
59728;SDS011;45588;51.598;5.618;2024-03-23T05:51:39;23.45;;;8.63;;
59728;SDS011;45588;51.598;5.618;2024-03-23T05:54:04;26.20;;;9.40;;
59728;SDS011;45588;51.598;5.618;2024-03-23T05:56:29;39.78;;;10.02;;
59728;SDS011;45588;51.598;5.618;2024-03-23T05:58:54;32.90;;;9.97;;
59728;SDS011;45588;51.598;5.618;2024-03-23T06:01:20;27.80;;;9.00;;
59728;SDS011;45588;51.598;5.618;2024-03-23T06:03:45;35.35;;;10.00;;
59728;SDS011;45588;51.598;5.618;2024-03-23T06:06:10;38.70;;;11.23;;
59728;SDS011;45588;51.598;5.618;2024-03-23T06:08:37;25.38;;;9.55;;
59728;SDS011;45588;51.598;5.618;2024-03-23T06:11:03;34.45;;;10.82;;
59728;SDS011;45588;51.598;5.618;2024-03-23T06:13:29;36.78;;;11.77;;
59728;SDS011;45588;51.598;5.618;2024-03-23T06:15:55;33.65;;;9.77;;
59728;SDS011;45588;51.598;5.618;2024-03-23T06:18:20;23.75;;;9.45;;
59728;SDS011;45588;51.598;5.618;2024-03-23T06:20:46;26.95;;;10.93;;
59728;SDS011;45588;51.598;5.618;2024-03-23T06:23:11;35.50;;;9.95;;
59728;SDS011;45588;51.598;5.618;2024-03-23T06:25:37;34.50;;;10.73;;
59728;SDS011;45588;51.598;5.618;2024-03-23T06:28:02;35.93;;;11.23;;
59728;SDS011;45588;51.598;5.618;2024-03-23T06:30:29;27.20;;;9.93;;
59728;SDS011;45588;51.598;5.618;2024-03-23T06:32:54;36.42;;;9.98;;
59728;SDS011;45588;51.598;5.618;2024-03-23T06:35:19;36.28;;;9.82;;
59728;SDS011;45588;51.598;5.618;2024-03-23T06:37:45;30.98;;;10.45;;
59728;SDS011;45588;51.598;5.618;2024-03-23T06:40:12;34.55;;;12.43;;
59728;SDS011;45588;51.598;5.618;2024-03-23T06:42:37;29.80;;;10.68;;
59728;SDS011;45588;51.598;5.618;2024-03-23T06:45:03;33.88;;;10.43;;
59728;SDS011;45588;51.598;5.618;2024-03-23T06:47:31;24.60;;;10.00;;
59728;SDS011;45588;51.598;5.618;2024-03-23T06:49:56;35.72;;;10.68;;
59728;SDS011;45588;51.598;5.618;2024-03-23T06:52:21;25.20;;;8.20;;
59728;SDS011;45588;51.598;5.618;2024-03-23T06:54:46;27.58;;;7.32;;
59728;SDS011;45588;51.598;5.618;2024-03-23T06:57:11;30.00;;;12.07;;
59728;SDS011;45588;51.598;5.618;2024-03-23T06:59:37;20.75;;;6.00;;
59728;SDS011;45588;51.598;5.618;2024-03-23T07:02:02;21.88;;;6.60;;
59728;SDS011;45588;51.598;5.618;2024-03-23T07:04:27;37.53;;;11.48;;
59728;SDS011;45588;51.598;5.618;2024-03-23T07:06:52;18.13;;;6.00;;
59728;SDS011;45588;51.598;5.618;2024-03-23T07:09:17;18.88;;;6.05;;
59728;SDS011;45588;51.598;5.618;2024-03-23T07:11:43;22.63;;;6.13;;
59728;SDS011;45588;51.598;5.618;2024-03-23T07:14:08;25.17;;;5.73;;
59728;SDS011;45588;51.598;5.618;2024-03-23T07:16:33;22.30;;;6.15;;
59728;SDS011;45588;51.598;5.618;2024-03-23T07:18:58;20.83;;;5.93;;
59728;SDS011;45588;51.598;5.618;2024-03-23T07:21:24;21.63;;;5.53;;
59728;SDS011;45588;51.598;5.618;2024-03-23T07:23:49;11.13;;;3.90;;
59728;SDS011;45588;51.598;5.618;2024-03-23T07:26:14;14.80;;;3.93;;
59728;SDS011;45588;51.598;5.618;2024-03-23T07:28:39;16.90;;;4.65;;
59728;SDS011;45588;51.598;5.618;2024-03-23T07:31:09;15.05;;;4.55;;
59728;SDS011;45588;51.598;5.618;2024-03-23T07:33:35;10.98;;;4.80;;
59728;SDS011;45588;51.598;5.618;2024-03-23T07:36:00;18.45;;;3.70;;
59728;SDS011;45588;51.598;5.618;2024-03-23T07:38:27;15.02;;;3.70;;
59728;SDS011;45588;51.598;5.618;2024-03-23T07:40:55;13.73;;;3.92;;
59728;SDS011;45588;51.598;5.618;2024-03-23T07:43:27;11.57;;;4.38;;
59728;SDS011;45588;51.598;5.618;2024-03-23T07:45:52;12.90;;;3.67;;
59728;SDS011;45588;51.598;5.618;2024-03-23T07:48:18;12.73;;;3.92;;
59728;SDS011;45588;51.598;5.618;2024-03-23T07:50:43;10.05;;;3.45;;
59728;SDS011;45588;51.598;5.618;2024-03-23T07:53:08;15.40;;;3.38;;
59728;SDS011;45588;51.598;5.618;2024-03-23T07:55:33;12.30;;;2.97;;
59728;SDS011;45588;51.598;5.618;2024-03-23T07:57:58;16.83;;;4.37;;
59728;SDS011;45588;51.598;5.618;2024-03-23T08:00:23;25.57;;;6.23;;
59728;SDS011;45588;51.598;5.618;2024-03-23T08:02:50;13.90;;;4.67;;
59728;SDS011;45588;51.598;5.618;2024-03-23T08:05:15;15.27;;;4.28;;
59728;SDS011;45588;51.598;5.618;2024-03-23T08:07:41;33.27;;;9.43;;
59728;SDS011;45588;51.598;5.618;2024-03-23T08:10:06;20.63;;;7.83;;
59728;SDS011;45588;51.598;5.618;2024-03-23T08:12:31;21.65;;;6.10;;
59728;SDS011;45588;51.598;5.618;2024-03-23T08:14:56;16.20;;;4.60;;
59728;SDS011;45588;51.598;5.618;2024-03-23T08:17:22;22.27;;;5.00;;
59728;SDS011;45588;51.598;5.618;2024-03-23T08:19:47;20.90;;;7.05;;
59728;SDS011;45588;51.598;5.618;2024-03-23T08:22:13;17.80;;;4.78;;
59728;SDS011;45588;51.598;5.618;2024-03-23T08:24:38;17.90;;;3.80;;
59728;SDS011;45588;51.598;5.618;2024-03-23T08:27:03;18.83;;;4.17;;
59728;SDS011;45588;51.598;5.618;2024-03-23T08:29:29;18.83;;;4.15;;
59728;SDS011;45588;51.598;5.618;2024-03-23T08:31:54;30.20;;;7.27;;
59728;SDS011;45588;51.598;5.618;2024-03-23T08:34:20;20.70;;;5.97;;
59728;SDS011;45588;51.598;5.618;2024-03-23T08:36:45;16.58;;;5.07;;
59728;SDS011;45588;51.598;5.618;2024-03-23T08:39:10;15.70;;;3.90;;
59728;SDS011;45588;51.598;5.618;2024-03-23T08:41:35;16.83;;;6.00;;
59728;SDS011;45588;51.598;5.618;2024-03-23T08:44:00;15.93;;;4.13;;
59728;SDS011;45588;51.598;5.618;2024-03-23T08:46:25;12.77;;;4.10;;
59728;SDS011;45588;51.598;5.618;2024-03-23T08:48:51;11.83;;;3.53;;
59728;SDS011;45588;51.598;5.618;2024-03-23T08:51:17;20.58;;;5.97;;
59728;SDS011;45588;51.598;5.618;2024-03-23T08:53:42;26.08;;;7.18;;
59728;SDS011;45588;51.598;5.618;2024-03-23T08:56:08;12.70;;;3.45;;
59728;SDS011;45588;51.598;5.618;2024-03-23T08:58:35;17.27;;;4.00;;
59728;SDS011;45588;51.598;5.618;2024-03-23T09:01:07;7.60;;;3.00;;
59728;SDS011;45588;51.598;5.618;2024-03-23T09:03:32;15.73;;;2.90;;
59728;SDS011;45588;51.598;5.618;2024-03-23T09:05:57;11.55;;;3.35;;
59728;SDS011;45588;51.598;5.618;2024-03-23T09:08:23;21.23;;;5.03;;
59728;SDS011;45588;51.598;5.618;2024-03-23T09:10:49;18.35;;;5.03;;
59728;SDS011;45588;51.598;5.618;2024-03-23T09:13:14;20.40;;;4.97;;
59728;SDS011;45588;51.598;5.618;2024-03-23T09:15:46;12.45;;;2.38;;
59728;SDS011;45588;51.598;5.618;2024-03-23T09:18:12;12.45;;;2.92;;
59728;SDS011;45588;51.598;5.618;2024-03-23T09:20:37;11.15;;;2.50;;
59728;SDS011;45588;51.598;5.618;2024-03-23T09:23:02;14.33;;;2.90;;
59728;SDS011;45588;51.598;5.618;2024-03-23T09:25:27;12.50;;;3.65;;
59728;SDS011;45588;51.598;5.618;2024-03-23T09:27:52;23.98;;;5.22;;
59728;SDS011;45588;51.598;5.618;2024-03-23T09:30:18;13.80;;;3.92;;
59728;SDS011;45588;51.598;5.618;2024-03-23T09:32:44;9.32;;;3.08;;
59728;SDS011;45588;51.598;5.618;2024-03-23T09:35:10;12.68;;;2.35;;
59728;SDS011;45588;51.598;5.618;2024-03-23T09:37:35;9.25;;;2.38;;
59728;SDS011;45588;51.598;5.618;2024-03-23T09:40:01;10.00;;;1.85;;
59728;SDS011;45588;51.598;5.618;2024-03-23T09:42:26;14.88;;;2.22;;
59728;SDS011;45588;51.598;5.618;2024-03-23T09:44:51;14.13;;;2.78;;
59728;SDS011;45588;51.598;5.618;2024-03-23T09:47:17;14.68;;;2.92;;
59728;SDS011;45588;51.598;5.618;2024-03-23T09:49:42;12.50;;;2.97;;
59728;SDS011;45588;51.598;5.618;2024-03-23T09:52:07;12.30;;;2.75;;
59728;SDS011;45588;51.598;5.618;2024-03-23T09:54:33;9.90;;;2.63;;
59728;SDS011;45588;51.598;5.618;2024-03-23T09:56:58;14.00;;;4.57;;
59728;SDS011;45588;51.598;5.618;2024-03-23T09:59:23;14.25;;;2.78;;
59728;SDS011;45588;51.598;5.618;2024-03-23T10:01:54;13.77;;;2.30;;
59728;SDS011;45588;51.598;5.618;2024-03-23T10:04:38;14.13;;;2.65;;
59728;SDS011;45588;51.598;5.618;2024-03-23T10:07:18;6.43;;;2.38;;
59728;SDS011;45588;51.598;5.618;2024-03-23T10:09:43;15.38;;;3.70;;
59728;SDS011;45588;51.598;5.618;2024-03-23T10:12:12;14.32;;;4.13;;
59728;SDS011;45588;51.598;5.618;2024-03-23T10:14:39;18.58;;;5.32;;
59728;SDS011;45588;51.598;5.618;2024-03-23T10:17:14;10.07;;;2.83;;
59728;SDS011;45588;51.598;5.618;2024-03-23T10:19:46;12.80;;;2.42;;
59728;SDS011;45588;51.598;5.618;2024-03-23T10:22:14;19.90;;;4.78;;
59728;SDS011;45588;51.598;5.618;2024-03-23T10:24:40;18.05;;;5.50;;
59728;SDS011;45588;51.598;5.618;2024-03-23T10:27:05;12.90;;;3.55;;
59728;SDS011;45588;51.598;5.618;2024-03-23T10:29:30;11.60;;;2.20;;
59728;SDS011;45588;51.598;5.618;2024-03-23T10:32:07;12.77;;;4.13;;
59728;SDS011;45588;51.598;5.618;2024-03-23T10:34:32;7.30;;;2.03;;
59728;SDS011;45588;51.598;5.618;2024-03-23T10:36:57;7.40;;;2.30;;
59728;SDS011;45588;51.598;5.618;2024-03-23T10:39:23;18.92;;;5.60;;
59728;SDS011;45588;51.598;5.618;2024-03-23T10:41:49;8.32;;;2.83;;
59728;SDS011;45588;51.598;5.618;2024-03-23T10:44:16;17.98;;;4.60;;
59728;SDS011;45588;51.598;5.618;2024-03-23T10:46:42;14.93;;;4.60;;
59728;SDS011;45588;51.598;5.618;2024-03-23T10:49:07;9.77;;;2.10;;
59728;SDS011;45588;51.598;5.618;2024-03-23T10:51:32;8.67;;;1.83;;
59728;SDS011;45588;51.598;5.618;2024-03-23T10:53:57;6.68;;;1.80;;
59728;SDS011;45588;51.598;5.618;2024-03-23T10:56:25;4.68;;;1.50;;
59728;SDS011;45588;51.598;5.618;2024-03-23T10:58:50;12.73;;;4.15;;
59728;SDS011;45588;51.598;5.618;2024-03-23T11:01:16;9.75;;;3.20;;
59728;SDS011;45588;51.598;5.618;2024-03-23T11:03:44;10.50;;;2.38;;
59728;SDS011;45588;51.598;5.618;2024-03-23T11:06:10;7.95;;;1.85;;
59728;SDS011;45588;51.598;5.618;2024-03-23T11:08:36;8.65;;;2.38;;
59728;SDS011;45588;51.598;5.618;2024-03-23T11:11:35;12.60;;;3.63;;
59728;SDS011;45588;51.598;5.618;2024-03-23T11:13:56;16.13;;;4.07;;
59728;SDS011;45588;51.598;5.618;2024-03-23T11:16:25;13.20;;;2.47;;
59728;SDS011;45588;51.598;5.618;2024-03-23T11:18:53;13.50;;;4.10;;
59728;SDS011;45588;51.598;5.618;2024-03-23T11:24:14;11.40;;;2.63;;
59728;SDS011;45588;51.598;5.618;2024-03-23T11:26:39;15.10;;;2.55;;
59728;SDS011;45588;51.598;5.618;2024-03-23T11:29:11;8.50;;;1.87;;
59728;SDS011;45588;51.598;5.618;2024-03-23T11:31:37;4.55;;;1.77;;
59728;SDS011;45588;51.598;5.618;2024-03-23T11:34:03;5.88;;;1.40;;
59728;SDS011;45588;51.598;5.618;2024-03-23T11:36:28;6.93;;;1.83;;
59728;SDS011;45588;51.598;5.618;2024-03-23T11:38:54;4.00;;;1.70;;
59728;SDS011;45588;51.598;5.618;2024-03-23T11:41:19;5.32;;;1.73;;
59728;SDS011;45588;51.598;5.618;2024-03-23T11:43:44;7.07;;;3.20;;
59728;SDS011;45588;51.598;5.618;2024-03-23T11:46:09;12.97;;;2.77;;
59728;SDS011;45588;51.598;5.618;2024-03-23T11:48:34;12.53;;;3.47;;
59728;SDS011;45588;51.598;5.618;2024-03-23T11:50:59;10.52;;;3.08;;
59728;SDS011;45588;51.598;5.618;2024-03-23T11:53:25;16.90;;;3.70;;
59728;SDS011;45588;51.598;5.618;2024-03-23T11:58:19;6.13;;;2.15;;
59728;SDS011;45588;51.598;5.618;2024-03-23T12:03:22;8.05;;;1.63;;
59728;SDS011;45588;51.598;5.618;2024-03-23T12:05:50;11.00;;;1.77;;
59728;SDS011;45588;51.598;5.618;2024-03-23T12:10:54;5.38;;;1.30;;
59728;SDS011;45588;51.598;5.618;2024-03-23T12:13:29;6.38;;;2.13;;
59728;SDS011;45588;51.598;5.618;2024-03-23T12:15:54;10.70;;;3.20;;
59728;SDS011;45588;51.598;5.618;2024-03-23T12:18:23;9.70;;;3.13;;
59728;SDS011;45588;51.598;5.618;2024-03-23T12:20:49;6.25;;;1.63;;
59728;SDS011;45588;51.598;5.618;2024-03-23T12:23:14;10.43;;;2.67;;
59728;SDS011;45588;51.598;5.618;2024-03-23T12:25:40;9.93;;;1.93;;
59728;SDS011;45588;51.598;5.618;2024-03-23T12:28:05;11.48;;;2.15;;
59728;SDS011;45588;51.598;5.618;2024-03-23T12:30:31;12.57;;;1.60;;
59728;SDS011;45588;51.598;5.618;2024-03-23T12:32:57;13.82;;;3.25;;
59728;SDS011;45588;51.598;5.618;2024-03-23T12:35:22;13.48;;;3.30;;
59728;SDS011;45588;51.598;5.618;2024-03-23T12:37:47;18.35;;;4.15;;
59728;SDS011;45588;51.598;5.618;2024-03-23T12:40:12;12.70;;;3.47;;
59728;SDS011;45588;51.598;5.618;2024-03-23T12:42:38;18.63;;;4.85;;
59728;SDS011;45588;51.598;5.618;2024-03-23T12:45:03;3.80;;;1.63;;
59728;SDS011;45588;51.598;5.618;2024-03-23T12:47:31;8.88;;;2.35;;
59728;SDS011;45588;51.598;5.618;2024-03-23T12:49:56;7.63;;;2.47;;
59728;SDS011;45588;51.598;5.618;2024-03-23T12:52:21;11.37;;;3.30;;
59728;SDS011;45588;51.598;5.618;2024-03-23T12:54:49;13.43;;;3.35;;
59728;SDS011;45588;51.598;5.618;2024-03-23T12:57:14;10.07;;;2.85;;
59728;SDS011;45588;51.598;5.618;2024-03-23T12:59:39;11.50;;;2.43;;
59728;SDS011;45588;51.598;5.618;2024-03-23T13:02:04;8.77;;;2.33;;
59728;SDS011;45588;51.598;5.618;2024-03-23T13:04:29;15.60;;;3.97;;
59728;SDS011;45588;51.598;5.618;2024-03-23T13:06:54;16.17;;;3.13;;
59728;SDS011;45588;51.598;5.618;2024-03-23T13:09:20;8.07;;;1.80;;
59728;SDS011;45588;51.598;5.618;2024-03-23T13:11:45;6.87;;;2.70;;
59728;SDS011;45588;51.598;5.618;2024-03-23T13:14:10;10.52;;;1.95;;
59728;SDS011;45588;51.598;5.618;2024-03-23T13:16:35;5.22;;;2.15;;
59728;SDS011;45588;51.598;5.618;2024-03-23T13:19:00;7.97;;;2.33;;
59728;SDS011;45588;51.598;5.618;2024-03-23T13:21:26;9.73;;;2.55;;
59728;SDS011;45588;51.598;5.618;2024-03-23T13:23:51;17.00;;;3.27;;
59728;SDS011;45588;51.598;5.618;2024-03-23T13:26:16;6.20;;;2.50;;
59728;SDS011;45588;51.598;5.618;2024-03-23T13:28:41;12.73;;;1.67;;
59728;SDS011;45588;51.598;5.618;2024-03-23T13:31:07;15.20;;;3.47;;
59728;SDS011;45588;51.598;5.618;2024-03-23T13:33:33;8.18;;;2.03;;
59728;SDS011;45588;51.598;5.618;2024-03-23T13:35:58;12.23;;;3.58;;
59728;SDS011;45588;51.598;5.618;2024-03-23T13:38:24;7.20;;;2.00;;
59728;SDS011;45588;51.598;5.618;2024-03-23T13:43:14;7.90;;;1.83;;
59728;SDS011;45588;51.598;5.618;2024-03-23T13:45:39;10.73;;;1.83;;
59728;SDS011;45588;51.598;5.618;2024-03-23T13:48:05;11.40;;;2.47;;
59728;SDS011;45588;51.598;5.618;2024-03-23T13:50:30;7.72;;;1.75;;
59728;SDS011;45588;51.598;5.618;2024-03-23T13:52:55;12.93;;;2.23;;
59728;SDS011;45588;51.598;5.618;2024-03-23T13:55:20;17.03;;;2.63;;
59728;SDS011;45588;51.598;5.618;2024-03-23T13:57:45;10.77;;;2.35;;
59728;SDS011;45588;51.598;5.618;2024-03-23T14:00:11;13.83;;;3.03;;
59728;SDS011;45588;51.598;5.618;2024-03-23T14:02:36;16.63;;;4.15;;
59728;SDS011;45588;51.598;5.618;2024-03-23T14:05:02;17.05;;;3.85;;
59728;SDS011;45588;51.598;5.618;2024-03-23T14:07:27;9.65;;;2.03;;
59728;SDS011;45588;51.598;5.618;2024-03-23T14:09:53;14.80;;;3.50;;
59728;SDS011;45588;51.598;5.618;2024-03-23T14:12:20;16.08;;;2.80;;
59728;SDS011;45588;51.598;5.618;2024-03-23T14:14:45;24.15;;;4.97;;
59728;SDS011;45588;51.598;5.618;2024-03-23T14:17:10;19.20;;;3.67;;
59728;SDS011;45588;51.598;5.618;2024-03-23T14:19:37;17.92;;;4.00;;
59728;SDS011;45588;51.598;5.618;2024-03-23T14:22:03;10.20;;;2.33;;
59728;SDS011;45588;51.598;5.618;2024-03-23T14:24:29;17.13;;;2.42;;
59728;SDS011;45588;51.598;5.618;2024-03-23T14:26:54;14.85;;;3.78;;
59728;SDS011;45588;51.598;5.618;2024-03-23T14:29:19;16.40;;;3.13;;
59728;SDS011;45588;51.598;5.618;2024-03-23T14:31:44;13.40;;;2.63;;
59728;SDS011;45588;51.598;5.618;2024-03-23T14:34:10;12.93;;;1.77;;
59728;SDS011;45588;51.598;5.618;2024-03-23T14:36:35;16.50;;;3.37;;
59728;SDS011;45588;51.598;5.618;2024-03-23T14:39:00;16.53;;;2.70;;
59728;SDS011;45588;51.598;5.618;2024-03-23T14:41:25;9.40;;;3.47;;
59728;SDS011;45588;51.598;5.618;2024-03-23T14:43:50;26.25;;;5.63;;
59728;SDS011;45588;51.598;5.618;2024-03-23T14:46:18;20.95;;;4.68;;
59728;SDS011;45588;51.598;5.618;2024-03-23T14:48:44;9.93;;;2.65;;
59728;SDS011;45588;51.598;5.618;2024-03-23T14:51:11;13.23;;;2.47;;
59728;SDS011;45588;51.598;5.618;2024-03-23T14:53:37;9.98;;;2.20;;
59728;SDS011;45588;51.598;5.618;2024-03-23T14:56:04;3.30;;;2.35;;
59728;SDS011;45588;51.598;5.618;2024-03-23T14:58:29;11.57;;;2.55;;
59728;SDS011;45588;51.598;5.618;2024-03-23T15:01:02;7.25;;;1.90;;
59728;SDS011;45588;51.598;5.618;2024-03-23T15:03:27;10.10;;;2.88;;
59728;SDS011;45588;51.598;5.618;2024-03-23T15:05:56;8.65;;;2.08;;
59728;SDS011;45588;51.598;5.618;2024-03-23T15:08:21;13.88;;;2.53;;
59728;SDS011;45588;51.598;5.618;2024-03-23T15:10:47;12.13;;;2.28;;
59728;SDS011;45588;51.598;5.618;2024-03-23T15:13:12;13.43;;;2.95;;
59728;SDS011;45588;51.598;5.618;2024-03-23T15:15:41;22.15;;;2.95;;
59728;SDS011;45588;51.598;5.618;2024-03-23T15:18:09;14.25;;;2.92;;
59728;SDS011;45588;51.598;5.618;2024-03-23T15:20:34;10.98;;;3.10;;
59728;SDS011;45588;51.598;5.618;2024-03-23T15:23:01;10.10;;;3.10;;
59728;SDS011;45588;51.598;5.618;2024-03-23T15:25:26;6.25;;;2.97;;
59728;SDS011;45588;51.598;5.618;2024-03-23T15:27:52;19.08;;;5.28;;
59728;SDS011;45588;51.598;5.618;2024-03-23T15:30:18;12.45;;;2.63;;
59728;SDS011;45588;51.598;5.618;2024-03-23T15:32:43;15.67;;;2.87;;
59728;SDS011;45588;51.598;5.618;2024-03-23T15:35:08;11.57;;;3.80;;